createdAt,value
2018-01-15T00:00:06.160Z,101129.55
2018-01-15T00:02:32.411Z,101128.51
2018-01-15T00:04:58.803Z,101117.36
2018-01-15T00:07:25.224Z,101110.05
2018-01-15T00:09:51.571Z,101111.03
2018-01-15T00:12:17.907Z,101108.86
2018-01-15T00:14:44.240Z,101110.16
2018-01-15T00:17:10.600Z,101106.81
2018-01-15T00:19:36.983Z,101112.45
2018-01-15T00:22:03.318Z,101114.42
2018-01-15T00:24:29.745Z,101111.73
2018-01-15T00:26:56.092Z,101114.34
2018-01-15T00:29:22.443Z,101115.80
2018-01-15T00:31:48.798Z,101108.30
2018-01-15T00:34:15.228Z,101111.70
2018-01-15T00:36:41.599Z,101114.79
2018-01-15T00:39:08.010Z,101115.19
2018-01-15T00:41:34.470Z,101119.09
2018-01-15T00:44:00.810Z,101115.30
2018-01-15T00:46:27.172Z,101118.87
2018-01-15T00:48:53.520Z,101116.89
2018-01-15T00:51:19.924Z,101117.64
2018-01-15T00:53:46.275Z,101116.51
2018-01-15T00:56:12.679Z,101126.06
2018-01-15T00:58:39.056Z,101128.07
2018-01-15T01:01:05.432Z,101120.73
2018-01-15T01:03:31.831Z,101120.27
2018-01-15T01:05:58.191Z,101116.33
2018-01-15T01:08:24.525Z,101122.17
2018-01-15T01:10:50.891Z,101116.11
2018-01-15T01:13:17.243Z,101120.33
2018-01-15T01:15:43.636Z,101121.81
2018-01-15T01:18:10.258Z,101110.37
2018-01-15T01:20:36.619Z,101110.79
2018-01-15T01:23:02.984Z,101106.85
2018-01-15T01:25:29.350Z,101102.22
2018-01-15T01:27:55.747Z,101098.11
2018-01-15T01:30:22.135Z,101104.85
2018-01-15T01:32:48.574Z,101102.67
2018-01-15T01:35:15.017Z,101101.74
2018-01-15T01:37:41.394Z,101095.09
2018-01-15T01:40:07.791Z,101101.80
2018-01-15T01:42:34.177Z,101095.83
2018-01-15T01:45:00.531Z,101090.58
2018-01-15T01:47:26.855Z,101089.28
2018-01-15T01:49:53.208Z,101080.64
2018-01-15T01:52:19.626Z,101075.66
2018-01-15T01:54:46.012Z,101072.42
2018-01-15T01:57:12.395Z,101073.23
2018-01-15T01:59:38.751Z,101067.78
2018-01-15T02:02:05.115Z,101060.39
2018-01-15T02:04:31.511Z,101061.38
2018-01-15T02:06:57.879Z,101056.26
2018-01-15T02:09:24.251Z,101062.09
2018-01-15T02:11:50.631Z,101057.94
2018-01-15T02:14:16.967Z,101053.64
2018-01-15T02:16:43.460Z,101054.86
2018-01-15T02:19:09.867Z,101059.73
2018-01-15T02:21:36.267Z,101061.02
2018-01-15T02:24:02.679Z,101055.90
2018-01-15T02:26:29.120Z,101050.24
2018-01-15T02:28:55.451Z,101052.75
2018-01-15T02:31:21.850Z,101044.13
2018-01-15T02:33:48.275Z,101042.34
2018-01-15T02:36:14.640Z,101048.03
2018-01-15T02:38:41.063Z,101060.20
2018-01-15T02:41:07.463Z,101046.56
2018-01-15T02:43:33.899Z,101047.53
2018-01-15T02:46:00.294Z,101043.64
2018-01-15T02:48:26.639Z,101044.09
2018-01-15T02:50:53.003Z,101057.08
2018-01-15T02:53:19.356Z,101057.95
2018-01-15T02:55:45.739Z,101048.48
2018-01-15T02:58:12.123Z,101035.95
2018-01-15T03:00:38.483Z,101041.13
2018-01-15T03:03:04.887Z,101042.10
2018-01-15T03:05:31.336Z,101038.54
2018-01-15T03:07:57.659Z,101030.90
2018-01-15T03:10:24.040Z,101035.28
2018-01-15T03:12:50.623Z,101040.16
2018-01-15T03:15:17.055Z,101047.37
2018-01-15T03:17:43.399Z,101052.33
2018-01-15T03:20:09.771Z,101052.89
2018-01-15T03:22:36.156Z,101043.27
2018-01-15T03:25:02.531Z,101032.27
2018-01-15T03:27:28.911Z,101029.88
2018-01-15T03:29:55.450Z,101019.30
2018-01-15T03:32:21.868Z,101020.66
2018-01-15T03:34:48.209Z,101032.42
2018-01-15T03:37:14.615Z,101024.91
2018-01-15T03:39:41.092Z,101029.22
2018-01-15T03:42:07.511Z,101023.51
2018-01-15T03:44:33.894Z,101019.00
2018-01-15T03:47:00.279Z,101030.84
2018-01-15T03:49:26.679Z,101022.39
2018-01-15T03:51:53.087Z,101019.27
2018-01-15T03:54:19.479Z,101017.77
2018-01-15T03:56:45.819Z,101009.87
2018-01-15T03:59:12.150Z,101008.59
2018-01-15T04:01:38.531Z,101004.41
2018-01-15T04:04:04.948Z,101003.53
2018-01-15T04:06:31.339Z,101007.28
2018-01-15T04:08:57.719Z,101001.30
2018-01-15T04:11:24.092Z,100987.72
2018-01-15T04:13:50.435Z,101014.00
2018-01-15T04:16:16.871Z,101019.13
2018-01-15T04:18:43.247Z,101024.46
2018-01-15T04:21:09.613Z,101025.70
2018-01-15T04:23:36.012Z,101012.79
2018-01-15T04:26:02.433Z,101008.41
2018-01-15T04:28:28.824Z,101003.24
2018-01-15T04:30:55.235Z,101001.91
2018-01-15T04:33:21.623Z,101009.56
2018-01-15T04:35:48.054Z,101014.98
2018-01-15T04:38:14.500Z,101016.87
2018-01-15T04:40:40.863Z,101009.43
2018-01-15T04:43:07.265Z,101014.02
2018-01-15T04:45:33.727Z,101021.77
2018-01-15T04:48:00.108Z,101009.83
2018-01-15T04:50:26.530Z,101013.86
2018-01-15T04:52:52.919Z,100999.30
2018-01-15T04:55:19.288Z,101007.36
2018-01-15T04:57:45.636Z,101014.06
2018-01-15T05:00:12.043Z,101017.94
2018-01-15T05:02:38.399Z,101030.48
2018-01-15T05:05:04.771Z,101026.38
2018-01-15T05:07:31.143Z,101019.77
2018-01-15T05:09:57.492Z,101022.67
2018-01-15T05:12:23.860Z,101025.94
2018-01-15T05:14:50.267Z,101027.09
2018-01-15T05:17:16.615Z,101031.59
2018-01-15T05:19:42.940Z,101039.28
2018-01-15T05:22:09.343Z,101044.59
2018-01-15T05:24:35.714Z,101046.96
2018-01-15T05:27:02.060Z,101044.96
2018-01-15T05:29:28.395Z,101041.70
2018-01-15T05:31:54.778Z,101035.84
2018-01-15T05:34:21.106Z,101044.81
2018-01-15T05:36:47.499Z,101046.20
2018-01-15T05:39:14.051Z,101048.98
2018-01-15T05:41:40.620Z,101051.14
2018-01-15T05:44:07.072Z,101044.56
2018-01-15T05:46:33.412Z,101041.13
2018-01-15T05:48:59.836Z,101047.46
2018-01-15T05:51:26.219Z,101040.02
2018-01-15T05:53:52.663Z,101037.36
2018-01-15T05:56:19.183Z,101048.30
2018-01-15T05:58:45.526Z,101045.62
2018-01-15T06:01:11.851Z,101047.46
2018-01-15T06:03:38.240Z,101052.68
2018-01-15T06:06:04.579Z,101056.11
2018-01-15T06:08:31.183Z,101059.95
2018-01-15T06:10:57.612Z,101057.57
2018-01-15T06:13:23.976Z,101058.66
2018-01-15T06:15:50.400Z,101058.70
2018-01-15T06:18:16.759Z,101069.11
2018-01-15T06:20:43.156Z,101075.02
2018-01-15T06:23:09.555Z,101077.92
2018-01-15T06:25:35.908Z,101076.14
2018-01-15T06:28:02.295Z,101082.71
2018-01-15T06:30:28.769Z,101075.39
2018-01-15T06:32:55.139Z,101075.15
2018-01-15T06:35:21.534Z,101074.70
2018-01-15T06:37:47.886Z,101082.37
2018-01-15T06:40:14.260Z,101083.07
2018-01-15T06:42:40.699Z,101084.28
2018-01-15T06:45:07.046Z,101090.92
2018-01-15T06:47:33.429Z,101095.04
2018-01-15T06:49:59.823Z,101098.27
2018-01-15T06:52:26.300Z,101092.14
2018-01-15T06:54:52.700Z,101087.52
2018-01-15T06:57:19.320Z,101083.30
2018-01-15T06:59:45.684Z,101083.55
2018-01-15T07:02:12.195Z,101092.28
2018-01-15T07:04:38.532Z,101096.84
2018-01-15T07:07:04.855Z,101100.04
2018-01-15T07:09:31.207Z,101093.50
2018-01-15T07:11:57.531Z,101095.28
2018-01-15T07:14:23.899Z,101088.96
2018-01-15T07:16:50.227Z,101104.99
2018-01-15T07:19:16.615Z,101102.36
2018-01-15T07:21:42.987Z,101098.39
2018-01-15T07:24:09.344Z,101086.69
2018-01-15T07:26:35.731Z,101080.70
2018-01-15T07:29:02.096Z,101084.70
2018-01-15T07:31:28.448Z,101089.17
2018-01-15T07:33:54.828Z,101079.45
2018-01-15T07:36:21.174Z,101083.73
2018-01-15T07:38:47.525Z,101077.38
2018-01-15T07:41:13.975Z,101072.98
2018-01-15T07:43:40.296Z,101072.78
2018-01-15T07:46:06.616Z,101065.94
2018-01-15T07:48:32.967Z,101077.37
2018-01-15T07:50:59.323Z,101077.89
2018-01-15T07:53:25.674Z,101077.70
2018-01-15T07:55:52.065Z,101082.45
2018-01-15T07:58:18.417Z,101088.41
2018-01-15T08:00:44.779Z,101086.94
2018-01-15T08:03:11.164Z,101079.17
2018-01-15T08:05:37.520Z,101084.52
2018-01-15T08:08:03.844Z,101085.88
2018-01-15T08:10:30.214Z,101090.59
2018-01-15T08:12:56.555Z,101098.83
2018-01-15T08:15:22.888Z,101088.94
2018-01-15T08:17:49.247Z,101087.64
2018-01-15T08:20:15.596Z,101084.03
2018-01-15T08:22:41.935Z,101076.81
2018-01-15T08:25:08.347Z,101098.57
2018-01-15T08:27:34.704Z,101092.53
2018-01-15T08:30:01.036Z,101090.02
2018-01-15T08:32:27.487Z,101090.46
2018-01-15T08:34:53.815Z,101095.56
2018-01-15T08:37:20.135Z,101089.25
2018-01-15T08:39:46.476Z,101085.67
2018-01-15T08:42:12.911Z,101100.92
2018-01-15T08:44:39.448Z,101096.51
2018-01-15T08:47:05.761Z,101091.89
2018-01-15T08:49:32.131Z,101096.30
2018-01-15T08:51:58.475Z,101094.56
2018-01-15T08:54:24.804Z,101095.50
2018-01-15T08:56:51.167Z,101098.08
2018-01-15T08:59:17.506Z,101105.50
2018-01-15T09:01:43.888Z,101100.75
2018-01-15T09:04:10.332Z,101089.36
2018-01-15T09:06:36.680Z,101076.73
2018-01-15T09:09:03.141Z,101076.33
2018-01-15T09:11:29.480Z,101073.38
2018-01-15T09:13:55.851Z,101087.20
2018-01-15T09:16:22.343Z,101094.14
2018-01-15T09:18:48.672Z,101086.92
2018-01-15T09:21:14.983Z,101089.28
2018-01-15T09:23:41.408Z,101082.76
2018-01-15T09:26:07.847Z,101080.02
2018-01-15T09:28:34.315Z,101085.38
2018-01-15T09:31:00.711Z,101085.47
2018-01-15T09:33:27.088Z,101066.42
2018-01-15T09:35:53.407Z,101073.00
2018-01-15T09:38:19.727Z,101069.98
2018-01-15T09:40:46.213Z,101065.44
2018-01-15T09:43:12.675Z,101066.78
2018-01-15T09:45:39.067Z,101056.02
2018-01-15T09:48:05.415Z,101058.80
2018-01-15T09:50:31.846Z,101051.30
2018-01-15T09:52:58.235Z,101046.14
2018-01-15T09:55:24.571Z,101049.69
2018-01-15T09:57:50.887Z,101052.78
2018-01-15T10:00:17.237Z,101044.97
2018-01-15T10:02:43.575Z,101041.24
2018-01-15T10:05:09.927Z,101036.19
2018-01-15T10:07:36.288Z,101042.66
2018-01-15T10:10:02.740Z,101038.23
2018-01-15T10:12:29.096Z,101035.27
2018-01-15T10:14:55.494Z,101033.45
2018-01-15T10:17:21.819Z,101034.39
2018-01-15T10:19:48.235Z,101024.16
2018-01-15T10:22:14.728Z,101015.52
2018-01-15T10:24:41.091Z,101022.17
2018-01-15T10:27:07.544Z,101019.65
2018-01-15T10:29:34.002Z,101007.17
2018-01-15T10:32:00.414Z,101006.78
2018-01-15T10:34:26.771Z,101012.11
2018-01-15T10:36:53.183Z,101014.30
2018-01-15T10:39:19.532Z,101018.50
2018-01-15T10:41:45.886Z,101008.15
2018-01-15T10:44:12.254Z,101008.22
2018-01-15T10:46:38.645Z,101009.20
2018-01-15T10:49:04.968Z,101014.61
2018-01-15T10:51:31.372Z,101009.90
2018-01-15T10:53:57.769Z,101013.34
2018-01-15T10:56:24.122Z,101012.03
2018-01-15T10:58:50.510Z,101016.48
2018-01-15T11:01:29.925Z,100992.44
2018-01-15T11:03:56.256Z,100980.54
2018-01-15T11:06:22.691Z,100988.49
2018-01-15T11:08:49.064Z,100989.77
2018-01-15T11:11:15.404Z,100992.20
2018-01-15T11:13:41.836Z,100996.56
2018-01-15T11:16:08.189Z,100987.92
2018-01-15T11:18:34.581Z,100987.16
2018-01-15T11:21:00.972Z,100990.37
2018-01-15T11:23:27.601Z,100988.63
2018-01-15T11:25:54.015Z,100972.39
2018-01-15T11:28:20.449Z,100965.33
2018-01-15T11:30:46.821Z,100964.30
2018-01-15T11:33:13.271Z,100959.66
2018-01-15T11:35:39.621Z,100959.13
2018-01-15T11:38:05.968Z,100957.94
2018-01-15T11:40:32.685Z,100948.91
2018-01-15T11:42:59.028Z,100946.27
2018-01-15T11:45:25.360Z,100947.62
2018-01-15T11:47:51.744Z,100941.43
2018-01-15T11:50:18.256Z,100935.48
2018-01-15T11:52:44.613Z,100938.97
2018-01-15T11:55:11.072Z,100939.73
2018-01-15T11:57:37.381Z,100932.32
2018-01-15T12:00:03.954Z,100927.59
2018-01-15T12:02:30.493Z,100921.36
2018-01-15T12:04:56.845Z,100930.52
2018-01-15T12:07:23.245Z,100926.66
2018-01-15T12:09:49.584Z,100921.09
2018-01-15T12:12:15.904Z,100920.58
2018-01-15T12:14:42.276Z,100928.81
2018-01-15T12:17:08.649Z,100924.87
2018-01-15T12:19:35.039Z,100920.59
2018-01-15T12:22:02.931Z,100920.69
2018-01-15T12:24:29.337Z,100919.87
2018-01-15T12:26:56.087Z,100913.77
2018-01-15T12:29:22.671Z,100918.50
2018-01-15T12:31:49.118Z,100914.23
2018-01-15T12:34:15.640Z,100912.09
2018-01-15T12:36:42.185Z,100907.78
2018-01-15T12:39:08.720Z,100909.03
2018-01-15T12:41:35.449Z,100908.67
2018-01-15T12:44:02.127Z,100921.15
2018-01-15T12:46:28.857Z,100917.33
2018-01-15T12:48:55.193Z,100915.11
2018-01-15T12:51:21.696Z,100911.69
2018-01-15T12:53:48.157Z,100902.61
2018-01-15T12:56:14.641Z,100904.19
2018-01-15T12:58:41.045Z,100895.59
2018-01-15T13:01:07.850Z,100891.72
2018-01-15T13:03:34.325Z,100893.45
2018-01-15T13:06:05.541Z,100894.16
2018-01-15T13:11:28.742Z,100898.88
2018-01-15T13:13:56.500Z,100893.78
2018-01-15T13:16:23.216Z,100900.27
2018-01-15T13:18:50.449Z,100899.33
2018-01-15T13:21:17.955Z,100897.82
2018-01-15T13:23:45.946Z,100900.40
2018-01-15T13:26:12.575Z,100894.95
2018-01-15T13:28:39.182Z,100892.78
2018-01-15T13:31:05.625Z,100889.41
2018-01-15T13:33:31.996Z,100894.63
2018-01-15T13:35:58.329Z,100889.98
2018-01-15T13:38:24.733Z,100882.09
2018-01-15T13:40:51.223Z,100879.36
2018-01-15T13:43:17.605Z,100878.60
2018-01-15T13:45:44.351Z,100875.62
2018-01-15T13:48:11.260Z,100870.52
2018-01-15T13:50:39.022Z,100866.67
2018-01-15T13:53:06.005Z,100869.31
2018-01-15T13:55:33.336Z,100873.62
2018-01-15T13:58:00.328Z,100869.12
2018-01-15T14:00:27.097Z,100867.45
2018-01-15T14:02:53.788Z,100865.77
2018-01-15T14:05:20.424Z,100863.20
2018-01-15T14:07:46.909Z,100858.46
2018-01-15T14:10:13.252Z,100853.31
2018-01-15T14:12:39.601Z,100855.91
2018-01-15T14:15:06.109Z,100859.80
2018-01-15T14:17:32.497Z,100850.68
2018-01-15T14:19:58.900Z,100851.99
2018-01-15T14:22:25.315Z,100858.02
2018-01-15T14:24:51.700Z,100863.16
2018-01-15T14:27:18.081Z,100862.34
2018-01-15T14:29:44.493Z,100855.89
2018-01-15T14:32:10.837Z,100861.56
2018-01-15T14:34:37.200Z,100861.08
2018-01-15T14:37:03.625Z,100849.38
2018-01-15T14:39:30.033Z,100850.68
2018-01-15T14:41:56.416Z,100846.80
2018-01-15T14:44:22.764Z,100855.03
2018-01-15T14:46:49.170Z,100842.05
2018-01-15T14:49:15.489Z,100848.11
2018-01-15T14:51:41.941Z,100849.40
2018-01-15T14:54:08.722Z,100845.90
2018-01-15T14:56:36.422Z,100845.92
2018-01-15T14:59:02.792Z,100845.05
2018-01-15T15:01:29.205Z,100839.38
2018-01-15T15:03:55.569Z,100839.41
2018-01-15T15:06:21.945Z,100836.81
2018-01-15T15:08:48.329Z,100834.20
2018-01-15T15:11:14.709Z,100831.09
2018-01-15T15:13:41.085Z,100832.33
2018-01-15T15:16:07.505Z,100826.81
2018-01-15T15:18:34.207Z,100829.84
2018-01-15T15:21:00.829Z,100831.53
2018-01-15T15:23:27.237Z,100838.92
2018-01-15T15:25:53.722Z,100828.56
2018-01-15T15:28:20.412Z,100828.15
2018-01-15T15:30:46.868Z,100823.02
2018-01-15T15:33:13.324Z,100822.09
2018-01-15T15:35:47.485Z,100819.03
2018-01-15T15:38:13.873Z,100816.01
2018-01-15T15:40:40.252Z,100823.80
2018-01-15T15:43:06.708Z,100828.09
2018-01-15T15:45:33.056Z,100830.69
2018-01-15T15:47:59.408Z,100824.62
2018-01-15T15:50:25.973Z,100823.37
2018-01-15T15:52:52.471Z,100818.16
2018-01-15T15:55:18.952Z,100824.27
2018-01-15T15:57:45.342Z,100835.91
2018-01-15T16:00:11.751Z,100834.67
2018-01-15T16:02:38.101Z,100834.61
2018-01-15T16:05:04.556Z,100829.77
2018-01-15T16:07:30.952Z,100829.33
2018-01-15T16:09:58.840Z,100828.55
2018-01-15T16:12:25.249Z,100822.50
2018-01-15T16:14:51.691Z,100816.41
2018-01-15T16:17:18.124Z,100807.78
2018-01-15T16:19:44.588Z,100797.02
2018-01-15T16:22:23.080Z,100798.27
2018-01-15T16:24:49.520Z,100807.83
2018-01-15T16:27:15.912Z,100800.06
2018-01-15T16:29:43.069Z,100797.86
2018-01-15T16:32:09.398Z,100803.05
2018-01-15T16:34:35.774Z,100809.93
2018-01-15T16:37:02.197Z,100800.04
2018-01-15T16:39:28.660Z,100803.48
2018-01-15T16:41:55.061Z,100809.13
2018-01-15T16:44:21.473Z,100803.98
2018-01-15T16:46:47.913Z,100802.66
2018-01-15T16:49:14.280Z,100807.43
2018-01-15T16:51:40.692Z,100800.95
2018-01-15T16:54:07.100Z,100795.73
2018-01-15T16:56:33.528Z,100798.30
2018-01-15T16:58:59.888Z,100800.40
2018-01-15T17:01:26.411Z,100806.04
2018-01-15T17:03:52.718Z,100811.66
2018-01-15T17:06:19.092Z,100814.66
2018-01-15T17:08:45.497Z,100806.06
2018-01-15T17:11:11.880Z,100807.80
2018-01-15T17:13:38.264Z,100798.70
2018-01-15T17:16:04.727Z,100794.37
2018-01-15T17:18:31.177Z,100798.64
2018-01-15T17:20:57.576Z,100800.84
2018-01-15T17:23:23.996Z,100796.55
2018-01-15T17:25:50.336Z,100786.20
2018-01-15T17:28:16.706Z,100781.89
2018-01-15T17:30:43.088Z,100787.53
2018-01-15T17:33:09.421Z,100784.06
2018-01-15T17:35:35.881Z,100780.63
2018-01-15T17:38:02.265Z,100786.69
2018-01-15T17:40:28.684Z,100783.66
2018-01-15T17:42:55.093Z,100776.29
2018-01-15T17:45:21.469Z,100772.42
2018-01-15T17:47:47.824Z,100757.27
2018-01-15T17:50:14.224Z,100749.06
2018-01-15T17:52:40.596Z,100748.59
2018-01-15T17:55:07.022Z,100749.08
2018-01-15T17:57:33.396Z,100748.22
2018-01-15T17:59:59.765Z,100754.29
2018-01-15T18:02:26.209Z,100749.09
2018-01-15T18:04:52.711Z,100746.05
2018-01-15T18:07:19.101Z,100734.80
2018-01-15T18:09:45.495Z,100730.93
2018-01-15T18:12:11.916Z,100730.48
2018-01-15T18:14:39.057Z,100732.23
2018-01-15T18:17:05.396Z,100731.78
2018-01-15T18:19:31.867Z,100733.03
2018-01-15T18:21:58.214Z,100722.69
2018-01-15T18:24:24.612Z,100724.84
2018-01-15T18:26:51.012Z,100722.27
2018-01-15T18:29:17.393Z,100716.19
2018-01-15T18:31:43.733Z,100699.33
2018-01-15T18:34:10.120Z,100704.52
2018-01-15T18:36:36.505Z,100706.25
2018-01-15T18:39:03.053Z,100707.98
2018-01-15T18:41:29.517Z,100706.24
2018-01-15T18:43:55.904Z,100704.09
2018-01-15T18:46:22.260Z,100703.62
2018-01-15T18:48:48.848Z,100704.97
2018-01-15T18:51:15.208Z,100703.63
2018-01-15T18:53:41.572Z,100700.64
2018-01-15T18:56:07.982Z,100707.98
2018-01-15T18:58:34.347Z,100705.81
2018-01-15T19:01:00.741Z,100691.97
2018-01-15T19:03:27.156Z,100681.59
2018-01-15T19:05:53.517Z,100686.36
2018-01-15T19:08:19.872Z,100682.02
2018-01-15T19:10:46.269Z,100678.58
2018-01-15T19:13:12.612Z,100687.66
2018-01-15T19:15:39.028Z,100682.91
2018-01-15T19:18:05.424Z,100675.11
2018-01-15T19:20:31.764Z,100669.91
2018-01-15T19:22:58.136Z,100672.95
2018-01-15T19:25:24.552Z,100669.45
2018-01-15T19:27:50.980Z,100675.10
2018-01-15T19:30:17.440Z,100666.86
2018-01-15T19:32:43.910Z,100659.50
2018-01-15T19:35:10.350Z,100650.42
2018-01-15T19:37:40.657Z,100634.00
2018-01-15T19:40:07.114Z,100640.07
2018-01-15T19:42:33.489Z,100643.11
2018-01-15T19:48:01.000Z,100630.14
2018-01-15T19:50:33.624Z,100630.57
2018-01-15T19:53:05.975Z,100635.31
2018-01-15T19:55:38.276Z,100640.52
2018-01-15T19:58:10.757Z,100642.68
2018-01-15T20:00:43.045Z,100638.34
2018-01-15T20:03:15.485Z,100636.20
2018-01-15T20:05:48.005Z,100638.34
2018-01-15T20:08:20.619Z,100632.30
2018-01-15T20:10:53.148Z,100630.13
2018-01-15T20:13:19.583Z,100638.34
2018-01-15T20:15:45.988Z,100624.95
2018-01-15T20:18:12.369Z,100608.94
2018-01-15T20:20:38.740Z,100585.16
2018-01-15T20:23:05.089Z,100581.68
2018-01-15T20:25:31.496Z,100593.37
2018-01-15T20:27:57.818Z,100583.87
2018-01-15T20:30:24.149Z,100581.69
2018-01-15T20:32:50.529Z,100582.10
2018-01-15T20:35:16.880Z,100582.56
2018-01-15T20:37:43.233Z,100587.30
2018-01-15T20:40:09.689Z,100570.00
2018-01-15T20:42:36.132Z,100556.58
2018-01-15T20:45:02.568Z,100563.51
2018-01-15T20:47:28.912Z,100569.56
2018-01-15T20:49:55.288Z,100589.92
2018-01-15T20:52:21.672Z,100593.36
2018-01-15T20:54:48.117Z,100603.31
2018-01-15T20:57:14.513Z,100604.62
2018-01-15T20:59:40.912Z,100602.89
2018-01-15T21:02:07.352Z,100592.53
2018-01-15T21:04:33.681Z,100582.55
2018-01-15T21:07:00.024Z,100581.27
2018-01-15T21:09:26.400Z,100587.73
2018-01-15T21:11:52.785Z,100576.50
2018-01-15T21:14:19.207Z,100574.78
2018-01-15T21:16:45.605Z,100560.92
2018-01-15T21:19:12.472Z,100545.74
2018-01-15T21:21:39.018Z,100553.98
2018-01-15T21:24:05.452Z,100549.67
2018-01-15T21:26:31.848Z,100557.05
2018-01-15T21:28:58.217Z,100559.64
2018-01-15T21:31:24.672Z,100567.88
2018-01-15T21:33:51.025Z,100564.81
2018-01-15T21:36:17.361Z,100571.73
2018-01-15T21:38:43.768Z,100566.13
2018-01-15T21:41:10.225Z,100558.77
2018-01-15T21:43:36.592Z,100555.77
2018-01-15T21:46:02.989Z,100550.58
2018-01-15T21:48:29.316Z,100544.09
2018-01-15T21:50:55.692Z,100537.59
2018-01-15T21:53:22.059Z,100535.86
2018-01-15T21:55:48.376Z,100532.86
2018-01-15T21:58:14.750Z,100526.39
2018-01-15T22:00:41.173Z,100525.95
2018-01-15T22:03:07.523Z,100532.00
2018-01-15T22:05:33.977Z,100520.32
2018-01-15T22:08:00.360Z,100518.16
2018-01-15T22:10:26.748Z,100525.09
2018-01-15T22:12:53.115Z,100516.88
2018-01-15T22:15:19.569Z,100511.69
2018-01-15T22:17:45.933Z,100513.41
2018-01-15T22:20:12.293Z,100508.66
2018-01-15T22:22:38.756Z,100502.17
2018-01-15T22:25:05.188Z,100499.58
2018-01-15T22:27:31.614Z,100499.58
2018-01-15T22:29:58.024Z,100505.65
2018-01-15T22:32:24.425Z,100494.41
2018-01-15T22:34:50.821Z,100495.27
2018-01-15T22:37:17.285Z,100490.07
2018-01-15T22:39:43.676Z,100485.29
2018-01-15T22:42:10.040Z,100484.04
2018-01-15T22:44:36.477Z,100485.31
2018-01-15T22:47:02.874Z,100475.81
2018-01-15T22:49:29.200Z,100476.24
2018-01-15T22:51:55.572Z,100471.89
2018-01-15T22:54:22.089Z,100465.89
2018-01-15T22:56:48.480Z,100466.31
2018-01-15T22:59:14.881Z,100459.84
2018-01-15T23:01:41.324Z,100447.73
2018-01-15T23:04:07.698Z,100442.94
2018-01-15T23:06:34.040Z,100451.65
2018-01-15T23:09:00.480Z,100436.52
2018-01-15T23:11:26.885Z,100445.16
2018-01-15T23:13:53.268Z,100435.64
2018-01-15T23:16:19.715Z,100429.57
2018-01-15T23:18:46.080Z,100424.80
2018-01-15T23:21:12.461Z,100420.94
2018-01-15T23:23:38.817Z,100409.69
2018-01-15T23:26:05.213Z,100413.63
2018-01-15T23:28:31.601Z,100414.06
2018-01-15T23:30:58.014Z,100413.61
2018-01-15T23:33:24.432Z,100414.91
2018-01-15T23:35:50.796Z,100401.95
2018-01-15T23:38:17.276Z,100403.25
2018-01-15T23:40:43.708Z,100407.53
2018-01-15T23:43:10.097Z,100402.35
2018-01-15T23:45:36.529Z,100399.81
2018-01-15T23:48:02.909Z,100397.67
2018-01-15T23:50:29.397Z,100391.19
2018-01-15T23:52:55.792Z,100394.19
2018-01-15T23:55:22.240Z,100387.73
2018-01-15T23:57:48.648Z,100382.11
